Time;durP1;ratioP1;P1;durP2;ratioP2;P2;SDS_P1;SDS_P2;PMS_P1;PMS_P2;Temp;Humidity;BMP_temperature;BMP_pressure;BME280_temperature;BME280_humidity;BME280_pressure;Samples;Min_cycle;Max_cycle;Signal;HPM_P1;HPM_P2
2022/09/11 00:01:28;;;;;;;23.45;16.55;;;12.00;99.90;;;;;;4921923;29;20039;-75
2022/09/11 00:03:55;;;;;;;20.85;14.27;;;12.00;99.90;;;;;;4914022;29;20443;-75
2022/09/11 00:06:22;;;;;;;21.05;15.07;;;12.10;99.90;;;;;;4898764;29;20039;-76
2022/09/11 00:08:52;;;;;;;22.02;15.77;;;12.00;99.90;;;;;;4911881;29;20054;-76
2022/09/11 00:11:22;;;;;;;22.63;16.00;;;12.00;99.90;;;;;;4937571;29;20498;-76
2022/09/11 00:13:50;;;;;;;22.83;15.80;;;12.10;99.90;;;;;;4915293;29;20043;-76
2022/09/11 00:16:32;;;;;;;19.65;15.10;;;12.00;99.90;;;;;;4902637;29;20324;-76
2022/09/11 00:19:01;;;;;;;18.88;14.57;;;12.00;99.90;;;;;;4927822;29;20047;-76
2022/09/11 00:21:28;;;;;;;19.73;15.57;;;12.00;99.90;;;;;;4921698;29;20049;-76
2022/09/11 00:23:54;;;;;;;21.25;15.30;;;12.00;99.90;;;;;;4912058;29;20115;-75
2022/09/11 00:26:21;;;;;;;19.85;14.65;;;12.00;99.90;;;;;;4898424;29;20047;-76
2022/09/11 00:28:49;;;;;;;19.35;14.40;;;12.00;99.90;;;;;;4913160;29;20056;-76
2022/09/11 00:31:18;;;;;;;20.55;15.18;;;12.00;99.90;;;;;;4937384;29;20050;-76
2022/09/11 00:33:44;;;;;;;20.25;15.48;;;12.00;99.90;;;;;;4895558;29;20122;-76
2022/09/11 00:36:13;;;;;;;19.00;14.20;;;12.00;99.90;;;;;;4891315;29;20032;-76
2022/09/11 00:38:39;;;;;;;19.33;13.88;;;12.00;99.90;;;;;;4899473;29;20047;-76
2022/09/11 00:41:12;;;;;;;19.02;14.23;;;11.90;99.90;;;;;;4954168;29;20371;-75
2022/09/11 00:44:04;;;;;;;20.85;15.07;;;11.90;99.90;;;;;;4921400;29;20039;-76
2022/09/11 00:46:44;;;;;;;21.70;15.63;;;11.80;99.90;;;;;;4921781;29;20145;-76
2022/09/11 00:49:21;;;;;;;17.83;13.30;;;11.90;99.90;;;;;;4907932;29;20058;-75
2022/09/11 00:51:53;;;;;;;16.92;13.35;;;11.80;99.90;;;;;;4913135;29;20090;-75
2022/09/11 00:54:27;;;;;;;18.80;13.48;;;11.80;99.90;;;;;;4937133;29;20182;-75
2022/09/11 00:56:55;;;;;;;19.98;13.75;;;11.70;99.90;;;;;;4912915;29;20043;-76
2022/09/11 00:59:28;;;;;;;17.98;13.48;;;11.70;99.90;;;;;;4936534;29;20055;-76
2022/09/11 01:01:54;;;;;;;17.42;12.93;;;11.70;99.90;;;;;;4935190;29;20545;-76
2022/09/11 01:04:23;;;;;;;18.90;12.90;;;11.70;99.90;;;;;;4917504;29;20044;-75
2022/09/11 01:06:53;;;;;;;17.58;13.05;;;11.60;99.90;;;;;;4901098;29;20145;-75
2022/09/11 01:09:19;;;;;;;18.35;13.30;;;11.60;99.90;;;;;;4902107;29;20499;-75
2022/09/11 01:12:16;;;;;;;18.38;13.32;;;11.60;99.90;;;;;;4901746;29;20047;-75
2022/09/11 01:15:02;;;;;;;16.42;12.45;;;11.60;99.90;;;;;;4916113;29;20048;-75
2022/09/11 01:17:48;;;;;;;17.40;12.18;;;11.60;99.90;;;;;;4917465;29;20252;-76
2022/09/11 01:20:45;;;;;;;17.23;12.40;;;11.60;99.90;;;;;;4910251;29;20043;-75
2022/09/11 01:24:05;;;;;;;17.58;12.82;;;11.50;99.90;;;;;;4883244;29;20091;-75
2022/09/11 01:27:00;;;;;;;19.15;13.43;;;11.50;99.90;;;;;;4891410;29;20055;-76
2022/09/11 01:29:58;;;;;;;16.40;12.23;;;11.50;99.90;;;;;;4905406;29;20044;-76
2022/09/11 01:32:37;;;;;;;16.77;12.43;;;11.40;99.90;;;;;;4901980;29;20446;-75
2022/09/11 01:35:16;;;;;;;21.67;14.05;;;11.40;99.90;;;;;;4900994;29;20127;-75
2022/09/11 01:38:05;;;;;;;19.50;14.10;;;11.40;99.90;;;;;;4916783;29;20051;-75
2022/09/11 01:40:44;;;;;;;20.08;14.10;;;11.40;99.90;;;;;;4906142;29;20077;-75
2022/09/11 01:43:15;;;;;;;19.02;13.73;;;11.40;99.90;;;;;;4915783;29;20047;-75
2022/09/11 01:45:45;;;;;;;18.63;14.43;;;11.30;99.90;;;;;;4904173;29;20031;-75
2022/09/11 01:48:16;;;;;;;19.15;14.35;;;11.30;99.90;;;;;;4920401;28;20043;-75
2022/09/11 01:50:45;;;;;;;19.05;13.93;;;11.30;99.90;;;;;;4910124;29;20529;-76
2022/09/11 01:53:18;;;;;;;19.77;13.95;;;11.30;99.90;;;;;;4901155;29;20769;-75
2022/09/11 01:56:01;;;;;;;22.52;14.77;;;11.30;99.90;;;;;;4901094;29;20417;-75
2022/09/11 01:58:29;;;;;;;21.45;15.02;;;11.20;99.90;;;;;;4935935;28;20502;-75
2022/09/11 02:01:10;;;;;;;25.00;16.73;;;11.30;99.90;;;;;;4936410;29;20039;-75
2022/09/11 02:03:40;;;;;;;23.58;16.42;;;11.30;99.90;;;;;;4920755;29;20490;-75
2022/09/11 02:06:12;;;;;;;22.05;14.70;;;11.20;99.90;;;;;;4926751;29;20553;-75
2022/09/11 02:08:45;;;;;;;23.13;14.27;;;11.20;99.90;;;;;;4908685;29;20043;-75
2022/09/11 02:11:14;;;;;;;21.85;15.13;;;11.30;99.90;;;;;;4901357;29;20383;-75
2022/09/11 02:14:15;;;;;;;15.38;10.95;;;11.30;99.90;;;;;;4901546;29;20047;-75
2022/09/11 02:17:02;;;;;;;12.57;9.52;;;11.30;99.90;;;;;;4923595;29;20059;-75
2022/09/11 02:19:30;;;;;;;15.40;11.15;;;11.30;99.90;;;;;;4913245;29;20075;-76
2022/09/11 02:21:57;;;;;;;13.80;10.68;;;11.20;99.90;;;;;;4897979;29;20040;-75
2022/09/11 02:24:23;;;;;;;14.90;10.85;;;11.30;99.90;;;;;;4931374;29;20043;-75
2022/09/11 02:26:54;;;;;;;15.70;10.55;;;11.20;99.90;;;;;;4931539;29;20039;-75
2022/09/11 02:29:20;;;;;;;15.57;10.77;;;11.20;99.90;;;;;;4919922;29;20075;-75
2022/09/11 02:31:47;;;;;;;17.15;9.88;;;11.20;99.90;;;;;;4904372;29;20137;-75
2022/09/11 02:34:13;;;;;;;14.45;11.30;;;11.10;99.90;;;;;;4911234;29;20091;-75
2022/09/11 02:36:47;;;;;;;16.48;10.80;;;11.10;99.90;;;;;;4911572;29;20402;-75
2022/09/11 02:39:41;;;;;;;16.05;10.57;;;11.10;99.90;;;;;;4919757;29;20047;-75
2022/09/11 02:42:25;;;;;;;;;;;11.10;99.90;;;;;;4953372;29;20641;-75
2022/09/11 02:45:19;;;;;;;17.90;12.13;;;11.10;99.90;;;;;;4900467;29;19918;-75
2022/09/11 02:48:06;;;;;;;17.38;10.93;;;11.10;99.90;;;;;;4903448;29;20087;-75
2022/09/11 02:50:41;;;;;;;14.90;10.40;;;11.00;99.90;;;;;;4971631;23;20426;-76
2022/09/11 02:53:33;;;;;;;12.82;9.23;;;11.00;99.90;;;;;;4958101;28;20235;-76
2022/09/11 02:56:07;;;;;;;13.80;9.75;;;11.00;99.90;;;;;;4941928;28;20411;-75
2022/09/11 02:58:49;;;;;;;11.88;9.38;;;11.00;99.90;;;;;;4935812;28;20049;-76
2022/09/11 03:01:14;;;;;;;9.85;8.48;;;11.00;99.90;;;;;;4923215;29;20035;-75
2022/09/11 03:03:44;;;;;;;11.45;9.38;;;11.00;99.90;;;;;;4938872;29;20445;-76
2022/09/11 03:06:22;;;;;;;10.68;8.57;;;11.00;99.90;;;;;;4923045;29;20078;-76
2022/09/11 03:08:48;;;;;;;11.48;9.35;;;11.00;99.90;;;;;;4929400;28;20031;-75
2022/09/11 03:11:14;;;;;;;11.18;8.63;;;11.00;99.90;;;;;;4920759;29;20063;-75
2022/09/11 03:13:40;;;;;;;11.52;8.73;;;10.90;99.90;;;;;;4919516;29;20068;-75
2022/09/11 03:16:06;;;;;;;10.10;8.48;;;10.90;99.90;;;;;;4903913;29;20047;-76
2022/09/11 03:18:32;;;;;;;11.63;8.90;;;10.90;99.90;;;;;;4910388;28;20047;-75
2022/09/11 03:20:58;;;;;;;10.00;8.93;;;10.90;99.90;;;;;;4938495;29;20077;-75
2022/09/11 03:23:24;;;;;;;11.40;9.43;;;10.90;99.90;;;;;;4919880;29;20062;-75
2022/09/11 03:25:49;;;;;;;12.45;8.88;;;10.90;99.90;;;;;;4929356;29;20120;-75
2022/09/11 03:28:15;;;;;;;10.80;9.23;;;10.80;99.90;;;;;;4919531;29;20517;-75
2022/09/11 03:30:41;;;;;;;12.38;9.32;;;10.80;99.90;;;;;;4938190;29;20077;-75
2022/09/11 03:33:07;;;;;;;10.25;9.15;;;10.80;99.90;;;;;;4938495;29;20046;-75
2022/09/11 03:35:33;;;;;;;10.50;8.90;;;10.80;99.90;;;;;;4932857;29;20512;-75
2022/09/11 03:37:59;;;;;;;11.38;9.38;;;10.80;99.90;;;;;;4909252;29;20040;-75
2022/09/11 03:40:25;;;;;;;12.80;10.20;;;10.80;99.90;;;;;;4918650;29;20445;-75
2022/09/11 03:42:51;;;;;;;12.02;10.73;;;10.80;99.90;;;;;;4922263;29;20130;-75
2022/09/11 03:45:18;;;;;;;11.23;9.82;;;10.80;99.90;;;;;;4918320;29;20174;-75
2022/09/11 03:47:44;;;;;;;12.40;9.55;;;10.80;99.90;;;;;;4932517;29;20500;-75
2022/09/11 03:50:11;;;;;;;11.75;10.10;;;10.80;99.90;;;;;;4907751;29;20090;-76
2022/09/11 03:52:37;;;;;;;11.38;10.15;;;10.80;99.90;;;;;;4910956;29;20122;-75
2022/09/11 03:55:06;;;;;;;11.75;10.50;;;10.80;99.90;;;;;;4903158;29;20195;-75
2022/09/11 03:57:32;;;;;;;17.13;9.07;;;10.80;99.90;;;;;;4902490;29;20049;-75
2022/09/11 04:00:00;;;;;;;13.85;10.18;;;10.80;99.90;;;;;;4906345;29;20054;-75
2022/09/11 04:02:26;;;;;;;11.65;10.43;;;10.90;99.90;;;;;;4926261;29;20052;-75
2022/09/11 04:04:51;;;;;;;13.07;9.88;;;10.90;99.90;;;;;;4918827;29;20046;-75
2022/09/11 04:07:17;;;;;;;12.32;10.93;;;10.90;99.90;;;;;;4917540;29;20043;-75
2022/09/11 04:09:43;;;;;;;11.43;9.10;;;10.90;99.90;;;;;;4933593;29;20090;-76
2022/09/11 04:12:10;;;;;;;12.40;10.32;;;10.90;99.90;;;;;;4918093;29;20046;-75
2022/09/11 04:14:35;;;;;;;11.95;10.07;;;10.90;99.90;;;;;;4911100;29;20054;-76
2022/09/11 04:17:01;;;;;;;19.98;10.30;;;10.90;99.90;;;;;;4937209;29;20130;-76
2022/09/11 04:19:28;;;;;;;15.13;12.18;;;11.00;99.90;;;;;;4937444;29;20405;-76
2022/09/11 04:21:53;;;;;;;15.98;12.10;;;11.00;99.90;;;;;;4910525;29;20036;-76
2022/09/11 04:24:19;;;;;;;14.30;11.50;;;11.00;99.90;;;;;;4918606;29;20118;-76
2022/09/11 04:26:45;;;;;;;13.65;11.27;;;11.00;99.90;;;;;;4902663;29;20039;-76
2022/09/11 04:29:11;;;;;;;13.70;10.63;;;11.10;99.90;;;;;;4907025;29;20039;-76
2022/09/11 04:31:37;;;;;;;23.98;10.85;;;11.10;99.90;;;;;;4921212;29;20039;-76
2022/09/11 04:34:03;;;;;;;14.50;11.85;;;11.10;99.90;;;;;;4916586;29;20090;-76
2022/09/11 04:36:29;;;;;;;12.02;10.02;;;11.10;99.90;;;;;;4910695;29;20427;-76
2022/09/11 04:38:57;;;;;;;12.57;10.05;;;11.10;99.90;;;;;;4906421;29;20191;-76
2022/09/11 04:41:23;;;;;;;11.40;10.10;;;11.10;99.90;;;;;;4933822;29;20485;-75
2022/09/11 04:43:52;;;;;;;12.05;10.43;;;11.10;99.90;;;;;;4936238;29;20046;-75
2022/09/11 04:46:18;;;;;;;10.60;9.48;;;11.10;99.90;;;;;;4930867;29;20164;-75
2022/09/11 04:48:51;;;;;;;11.02;9.18;;;11.10;99.90;;;;;;4908885;29;20122;-75
2022/09/11 04:51:26;;;;;;;10.35;9.25;;;11.10;99.90;;;;;;4932070;29;20042;-76
2022/09/11 04:53:56;;;;;;;10.10;9.10;;;11.00;99.90;;;;;;4936865;29;20047;-76
2022/09/11 04:56:23;;;;;;;10.15;9.15;;;11.00;99.90;;;;;;4919098;29;20043;-76
2022/09/11 04:58:54;;;;;;;11.07;9.68;;;10.90;99.90;;;;;;4928915;29;20055;-76
2022/09/11 05:01:21;;;;;;;11.00;9.82;;;10.90;99.90;;;;;;4920555;29;20047;-76
2022/09/11 05:03:47;;;;;;;10.80;9.65;;;10.90;99.90;;;;;;4889837;29;20040;-76
2022/09/11 05:06:15;;;;;;;11.00;9.90;;;10.90;99.90;;;;;;4917030;29;20042;-76
2022/09/11 05:08:41;;;;;;;10.55;9.18;;;10.90;99.90;;;;;;4917982;28;20043;-76
2022/09/11 05:11:13;;;;;;;11.32;10.10;;;10.80;99.90;;;;;;4926244;29;20043;-76
2022/09/11 05:13:40;;;;;;;11.70;10.48;;;10.80;99.90;;;;;;4935077;29;20082;-76
2022/09/11 05:16:08;;;;;;;11.35;10.20;;;10.80;99.90;;;;;;4926485;29;20048;-76
2022/09/11 05:18:35;;;;;;;11.43;10.23;;;10.80;99.90;;;;;;4932754;28;20118;-76
2022/09/11 05:21:02;;;;;;;11.50;10.00;;;10.80;99.90;;;;;;4929672;29;20039;-76
2022/09/11 05:23:29;;;;;;;11.45;9.73;;;10.80;99.90;;;;;;4936456;29;20039;-76
2022/09/11 05:25:59;;;;;;;15.70;10.48;;;10.80;99.90;;;;;;4920782;29;20039;-75
2022/09/11 05:28:25;;;;;;;12.95;9.73;;;10.80;99.90;;;;;;4928438;29;20410;-76
2022/09/11 05:30:52;;;;;;;12.38;10.50;;;10.80;99.90;;;;;;4893380;29;20073;-76
2022/09/11 05:33:18;;;;;;;14.98;10.15;;;10.90;99.90;;;;;;4915725;29;20043;-75
2022/09/11 05:35:43;;;;;;;12.23;10.57;;;10.90;99.90;;;;;;4920741;29;20397;-76
2022/09/11 05:38:12;;;;;;;12.10;10.57;;;10.90;99.90;;;;;;4913357;29;20040;-76
2022/09/11 05:40:49;;;;;;;12.60;10.57;;;10.90;99.90;;;;;;4933529;29;20062;-75
2022/09/11 05:43:16;;;;;;;11.90;10.43;;;10.90;99.90;;;;;;4929540;29;20035;-75
2022/09/11 05:45:44;;;;;;;13.30;9.98;;;10.90;99.90;;;;;;4936234;29;20050;-75
2022/09/11 05:48:10;;;;;;;12.10;9.27;;;11.00;99.90;;;;;;4936280;29;20047;-75
2022/09/11 05:50:37;;;;;;;11.98;10.15;;;11.00;99.90;;;;;;4936320;29;20054;-75
2022/09/11 05:53:04;;;;;;;12.20;10.32;;;11.00;99.90;;;;;;4913770;29;20040;-75
2022/09/11 05:55:34;;;;;;;13.25;11.15;;;11.10;99.90;;;;;;4921768;29;20051;-75
2022/09/11 05:58:00;;;;;;;12.82;10.73;;;11.10;99.90;;;;;;4901090;29;20047;-76
2022/09/11 06:00:26;;;;;;;13.68;11.52;;;11.10;99.90;;;;;;4925231;29;20091;-76
2022/09/11 06:02:53;;;;;;;13.18;11.45;;;11.20;99.90;;;;;;4912663;29;20040;-75
2022/09/11 06:05:19;;;;;;;12.77;10.63;;;11.30;99.90;;;;;;4896856;29;20032;-75
2022/09/11 06:07:45;;;;;;;12.73;11.00;;;11.30;99.90;;;;;;4916792;29;20047;-76
2022/09/11 06:10:11;;;;;;;15.68;10.30;;;11.40;99.90;;;;;;4935943;29;20043;-76
2022/09/11 06:12:36;;;;;;;14.25;11.65;;;11.50;99.90;;;;;;4920267;29;20040;-76
2022/09/11 06:15:02;;;;;;;12.38;11.00;;;11.50;99.90;;;;;;4936117;29;20043;-76
2022/09/11 06:17:28;;;;;;;14.90;11.52;;;11.60;99.90;;;;;;4892746;29;20051;-76
2022/09/11 06:19:54;;;;;;;12.20;10.68;;;11.60;99.90;;;;;;4937570;29;20045;-75
2022/09/11 06:22:20;;;;;;;11.57;10.38;;;11.70;99.90;;;;;;4939652;29;20035;-75
2022/09/11 06:24:46;;;;;;;13.93;11.13;;;11.70;99.90;;;;;;4923738;29;20039;-75
2022/09/11 06:27:12;;;;;;;16.95;12.27;;;11.80;99.90;;;;;;4939291;29;20570;-75
2022/09/11 06:29:38;;;;;;;13.02;11.60;;;11.90;99.90;;;;;;4917221;29;20044;-75
2022/09/11 06:32:03;;;;;;;13.68;12.00;;;11.90;99.90;;;;;;4897771;29;20070;-75
2022/09/11 06:34:30;;;;;;;14.68;12.68;;;12.00;99.90;;;;;;4936292;29;20094;-75
2022/09/11 06:36:56;;;;;;;16.48;12.88;;;12.00;99.90;;;;;;4939171;29;20082;-75
2022/09/11 06:39:22;;;;;;;15.20;13.02;;;12.10;99.90;;;;;;4935439;29;20480;-75
2022/09/11 06:41:47;;;;;;;15.48;13.32;;;12.10;99.90;;;;;;4920072;29;20055;-76
2022/09/11 06:44:14;;;;;;;15.35;12.63;;;12.20;99.90;;;;;;4933141;29;20039;-75
2022/09/11 06:46:39;;;;;;;14.20;12.70;;;12.30;99.90;;;;;;4924030;29;20085;-75
2022/09/11 06:49:05;;;;;;;15.50;13.35;;;12.30;99.90;;;;;;4933966;29;20483;-75
2022/09/11 06:51:31;;;;;;;15.63;13.95;;;12.30;99.90;;;;;;4904532;29;20663;-75
2022/09/11 06:54:01;;;;;;;17.60;14.45;;;12.40;99.90;;;;;;4920264;29;20498;-75
2022/09/11 06:56:30;;;;;;;18.17;14.57;;;12.50;99.90;;;;;;4925997;29;20102;-76
2022/09/11 06:58:56;;;;;;;18.30;14.68;;;12.60;99.90;;;;;;4933534;29;20044;-75
2022/09/11 07:01:22;;;;;;;18.80;16.13;;;12.70;99.90;;;;;;4910323;29;20031;-77
2022/09/11 07:03:50;;;;;;;18.58;15.43;;;12.80;99.90;;;;;;4906376;29;20069;-77
2022/09/11 07:06:18;;;;;;;21.40;16.33;;;12.90;99.90;;;;;;4904472;29;20124;-77
2022/09/11 07:08:49;;;;;;;21.08;15.65;;;13.00;99.90;;;;;;4920379;29;20050;-76
2022/09/11 07:11:15;;;;;;;22.30;18.40;;;13.10;99.90;;;;;;4887660;29;20048;-77
2022/09/11 07:13:40;;;;;;;22.67;17.83;;;13.20;99.90;;;;;;4919936;29;20046;-76
2022/09/11 07:16:09;;;;;;;23.85;18.75;;;13.40;99.90;;;;;;4910684;29;20066;-77
2022/09/11 07:18:37;;;;;;;24.23;17.75;;;13.40;99.90;;;;;;4900425;29;20059;-77
2022/09/11 07:21:07;;;;;;;26.95;19.90;;;13.50;99.90;;;;;;4884951;29;20525;-76
2022/09/11 07:23:37;;;;;;;29.10;20.10;;;13.60;99.90;;;;;;4903043;29;20051;-76
2022/09/11 07:26:11;;;;;;;28.75;19.42;;;13.80;99.90;;;;;;4918497;29;20114;-76
2022/09/11 07:28:38;;;;;;;24.70;18.85;;;13.90;99.90;;;;;;4903487;29;20047;-76
2022/09/11 07:31:14;;;;;;;28.77;20.05;;;14.00;99.90;;;;;;4917542;29;20043;-78
2022/09/11 07:33:47;;;;;;;26.08;19.42;;;14.10;99.90;;;;;;4906821;29;20036;-77
2022/09/11 07:36:15;;;;;;;27.77;20.08;;;14.10;99.90;;;;;;4897539;29;20044;-76
2022/09/11 07:38:42;;;;;;;26.58;19.40;;;14.20;99.90;;;;;;4917709;29;20039;-77
2022/09/11 07:41:09;;;;;;;28.45;20.38;;;14.40;99.90;;;;;;4918387;29;20039;-76
2022/09/11 07:43:40;;;;;;;32.35;21.67;;;14.50;99.90;;;;;;4916776;29;20044;-77
2022/09/11 07:46:06;;;;;;;30.95;21.17;;;14.60;99.90;;;;;;4913061;29;20093;-76
2022/09/11 07:48:32;;;;;;;33.80;22.17;;;14.70;99.90;;;;;;4903076;29;20082;-76
2022/09/11 07:51:03;;;;;;;31.70;21.02;;;14.80;99.90;;;;;;4903644;29;20058;-77
2022/09/11 07:53:37;;;;;;;32.13;21.80;;;14.90;99.90;;;;;;4902395;29;20091;-76
2022/09/11 07:56:14;;;;;;;30.98;21.10;;;15.00;99.90;;;;;;4910625;29;20347;-76
2022/09/11 07:58:42;;;;;;;30.88;21.63;;;15.10;99.90;;;;;;4918516;29;20494;-76
2022/09/11 08:01:10;;;;;;;26.30;19.50;;;15.20;99.90;;;;;;4919166;29;20431;-76
2022/09/11 08:03:36;;;;;;;25.33;19.25;;;15.30;99.90;;;;;;4901323;29;20526;-76
2022/09/11 08:06:04;;;;;;;24.92;19.23;;;15.40;99.90;;;;;;4913125;29;20035;-77
2022/09/11 08:08:31;;;;;;;24.80;18.77;;;15.50;99.90;;;;;;4916829;29;20047;-76
2022/09/11 08:11:02;;;;;;;23.25;18.95;;;15.60;99.90;;;;;;4918619;29;20074;-76
2022/09/11 08:13:28;;;;;;;25.50;20.00;;;15.70;99.90;;;;;;4929605;29;20067;-76
2022/09/11 08:15:53;;;;;;;21.83;17.73;;;15.80;99.90;;;;;;4932089;29;20065;-76
2022/09/11 08:18:19;;;;;;;21.60;16.92;;;15.90;99.90;;;;;;4917883;29;20046;-76
2022/09/11 08:20:45;;;;;;;18.67;16.67;;;16.00;99.90;;;;;;4913258;29;20046;-76
2022/09/11 08:23:11;;;;;;;19.27;16.33;;;16.20;99.90;;;;;;4930868;29;20553;-76
2022/09/11 08:25:37;;;;;;;17.00;15.30;;;16.30;99.90;;;;;;4920291;29;20043;-76
2022/09/11 08:28:04;;;;;;;15.20;13.68;;;16.50;99.90;;;;;;4903536;29;20118;-75
2022/09/11 08:30:31;;;;;;;15.70;14.20;;;16.50;99.90;;;;;;4926814;29;20059;-76
2022/09/11 08:32:57;;;;;;;15.98;14.30;;;16.60;99.90;;;;;;4917802;29;20043;-76
2022/09/11 08:35:22;;;;;;;14.25;12.75;;;16.70;99.90;;;;;;4914979;29;20558;-76
2022/09/11 08:37:48;;;;;;;11.57;10.40;;;16.90;99.90;;;;;;4919610;29;20043;-76
2022/09/11 08:40:14;;;;;;;11.27;10.18;;;17.10;99.90;;;;;;4926570;29;20040;-77
2022/09/11 08:42:42;;;;;;;10.52;9.27;;;17.30;99.90;;;;;;4921177;29;20067;-77
2022/09/11 08:45:14;;;;;;;12.35;11.07;;;17.50;99.90;;;;;;4923261;29;20123;-77
2022/09/11 08:47:44;;;;;;;11.43;10.23;;;17.70;99.90;;;;;;4902277;29;20040;-77
2022/09/11 08:50:22;;;;;;;10.15;8.98;;;18.10;99.90;;;;;;4935748;23;20116;-76
2022/09/11 08:52:48;;;;;;;7.25;6.55;;;18.70;99.90;;;;;;4899165;29;20043;-77
2022/09/11 08:55:25;;;;;;;7.53;6.57;;;19.20;99.90;;;;;;4896218;29;20123;-76
2022/09/11 08:58:06;;;;;;;6.13;5.22;;;19.60;99.90;;;;;;4915712;29;20040;-77
2022/09/11 09:00:42;;;;;;;5.93;5.32;;;19.70;99.90;;;;;;4882177;29;20043;-77
2022/09/11 09:04:26;;;;;;;5.65;5.07;;;19.60;99.90;;;;;;4910533;29;20036;-77
2022/09/11 09:07:30;;;;;;;5.75;5.10;;;19.50;99.90;;;;;;4890887;29;20039;-76
2022/09/11 09:10:14;;;;;;;5.97;5.20;;;19.40;99.90;;;;;;4887584;29;20041;-77
2022/09/11 09:12:58;;;;;;;;;;;19.30;99.90;;;;;;4891642;29;20699;-77
2022/09/11 09:15:32;;;;;;;;;;;19.30;99.90;;;;;;4908605;29;19971;-78
2022/09/11 09:18:35;;;;;;;4.82;3.88;;;19.20;99.90;;;;;;4902014;29;19923;-78
2022/09/11 09:21:30;;;;;;;5.07;3.70;;;19.00;99.90;;;;;;4874848;29;20070;-77
2022/09/11 09:24:22;;;;;;;4.32;3.33;;;18.90;99.90;;;;;;4877091;29;20040;-77
2022/09/11 09:26:56;;;;;;;4.15;3.42;;;18.70;99.90;;;;;;4883189;29;20177;-77
2022/09/11 09:29:36;;;;;;;5.00;3.60;;;18.60;99.90;;;;;;4883303;29;20075;-77
2022/09/11 09:32:12;;;;;;;4.95;4.45;;;18.70;99.90;;;;;;4894709;29;20048;-78
2022/09/11 09:34:44;;;;;;;3.72;3.28;;;19.30;99.90;;;;;;4911328;29;20061;-78
2022/09/11 09:37:29;;;;;;;2.42;2.22;;;20.10;99.90;;;;;;4905741;29;20058;-78
2022/09/11 09:40:09;;;;;;;2.80;2.17;;;20.90;99.90;;;;;;4882433;29;20044;-78
2022/09/11 09:43:00;;;;;;;3.58;2.10;;;21.50;99.90;;;;;;4898751;29;20040;-78
2022/09/11 09:45:32;;;;;;;2.15;1.63;;;22.10;99.90;;;;;;4903110;29;20119;-79
2022/09/11 09:48:00;;;;;;;2.55;1.65;;;22.60;99.90;;;;;;4877311;29;20051;-78
2022/09/11 09:50:53;;;;;;;1.63;1.52;;;23.10;99.90;;;;;;4897715;29;20043;-78
2022/09/11 09:53:53;;;;;;;1.60;1.30;;;23.40;99.90;;;;;;4880186;29;20052;-79
2022/09/11 09:56:30;;;;;;;3.55;1.23;;;23.70;99.90;;;;;;4902482;29;20084;-79
2022/09/11 09:59:12;;;;;;;2.85;1.30;;;23.90;99.90;;;;;;4901784;29;20130;-78
2022/09/11 10:01:49;;;;;;;1.35;1.00;;;23.90;99.90;;;;;;4901230;29;20056;-77
2022/09/11 10:04:29;;;;;;;1.67;1.10;;;23.90;99.90;;;;;;4883633;29;20045;-77
2022/09/11 10:07:10;;;;;;;1.65;1.00;;;24.10;99.90;;;;;;4897410;29;20179;-78
2022/09/11 10:10:02;;;;;;;0.90;0.90;;;24.20;99.90;;;;;;4920986;29;20043;-77
2022/09/11 10:12:31;;;;;;;1.63;1.20;;;24.20;99.90;;;;;;4907595;29;20040;-77
2022/09/11 10:15:01;;;;;;;1.23;1.00;;;24.10;98.50;;;;;;4890457;29;20043;-78
2022/09/11 10:17:37;;;;;;;1.38;1.10;;;24.10;99.90;;;;;;4907211;29;20137;-78
2022/09/11 10:20:20;;;;;;;0.95;0.90;;;24.30;99.90;;;;;;4907526;29;20044;-78
2022/09/11 10:22:48;;;;;;;2.00;1.00;;;24.70;99.90;;;;;;4921092;29;20087;-77
2022/09/11 10:25:26;;;;;;;1.00;1.00;;;24.80;99.90;;;;;;4901152;29;20053;-77
2022/09/11 10:28:04;;;;;;;0.98;0.93;;;25.10;99.90;;;;;;4897598;29;20037;-78
2022/09/11 10:31:03;;;;;;;1.15;0.90;;;25.10;99.90;;;;;;4915300;29;20051;-77
2022/09/11 10:33:36;;;;;;;1.42;0.82;;;24.80;99.90;;;;;;4919590;29;20059;-78
2022/09/11 10:36:04;;;;;;;;;;;25.00;99.90;;;;;;4921290;29;20039;-77
2022/09/11 10:38:48;;;;;;;1.50;1.00;;;25.40;95.50;;;;;;4909038;29;19923;-77
2022/09/11 10:41:19;;;;;;;3.17;1.10;;;25.80;95.60;;;;;;4877979;29;20102;-78
2022/09/11 10:43:50;;;;;;;1.60;1.05;;;25.60;93.00;;;;;;4904567;29;20040;-78
2022/09/11 10:46:36;;;;;;;2.35;1.15;;;25.30;94.80;;;;;;4920456;29;20040;-78
2022/09/11 10:49:01;;;;;;;1.23;0.95;;;25.40;96.30;;;;;;4920135;29;20083;-78
2022/09/11 10:51:35;;;;;;;1.20;0.95;;;25.70;99.80;;;;;;4919197;29;20079;-78
2022/09/11 10:54:04;;;;;;;1.27;0.85;;;26.20;90.00;;;;;;4897101;29;20079;-78
2022/09/11 10:56:44;;;;;;;2.25;1.02;;;26.60;91.50;;;;;;4904333;29;20055;-78
2022/09/11 10:59:16;;;;;;;1.92;1.10;;;26.80;92.50;;;;;;4901061;29;20040;-78
2022/09/11 11:01:43;;;;;;;1.83;0.95;;;26.90;90.40;;;;;;4902909;29;20176;-78
2022/09/11 11:04:12;;;;;;;1.58;0.75;;;27.00;88.10;;;;;;4902701;29;20047;-78
2022/09/11 11:07:06;;;;;;;1.10;0.70;;;27.00;87.60;;;;;;4892941;29;20035;-78
2022/09/11 11:09:55;;;;;;;0.85;0.70;;;27.00;74.30;;;;;;4919972;29;20086;-78
2022/09/11 11:12:49;;;;;;;1.08;0.60;;;26.80;79.40;;;;;;4903363;29;20079;-78
2022/09/11 11:15:34;;;;;;;1.20;0.70;;;26.70;70.90;;;;;;4920018;29;20043;-78
2022/09/11 11:18:26;;;;;;;0.95;0.60;;;26.50;76.50;;;;;;4896567;29;20126;-77
2022/09/11 11:21:23;;;;;;;1.48;0.80;;;26.40;81.10;;;;;;4884089;29;20040;-77
2022/09/11 11:24:11;;;;;;;1.77;0.80;;;26.40;84.00;;;;;;4877900;29;20545;-77
2022/09/11 11:27:09;;;;;;;1.48;0.85;;;26.60;82.10;;;;;;4900687;29;20036;-78
2022/09/11 11:29:50;;;;;;;0.85;0.63;;;26.20;78.10;;;;;;4886579;29;20050;-77
2022/09/11 11:32:22;;;;;;;1.65;0.77;;;25.90;83.20;;;;;;4902088;29;20147;-76
2022/09/11 11:35:06;;;;;;;0.90;0.80;;;26.20;84.50;;;;;;4901592;29;20050;-78
2022/09/11 11:37:37;;;;;;;1.42;0.93;;;26.50;80.50;;;;;;4900575;29;20051;-78
2022/09/11 11:40:17;;;;;;;0.77;0.70;;;26.50;78.90;;;;;;4900608;29;20083;-77
2022/09/11 11:43:02;;;;;;;0.82;0.80;;;26.50;78.90;;;;;;4907687;29;20040;-77
2022/09/11 11:46:17;;;;;;;1.08;0.82;;;26.70;82.40;;;;;;4881130;29;20495;-77
2022/09/11 11:48:43;;;;;;;0.80;0.80;;;26.90;81.30;;;;;;4883282;29;20048;-77
2022/09/11 11:51:26;;;;;;;2.70;0.90;;;26.70;79.00;;;;;;4899970;29;20043;-78
2022/09/11 11:54:09;;;;;;;1.65;1.00;;;26.20;80.60;;;;;;4918171;29;20043;-77
2022/09/11 11:56:39;;;;;;;1.15;0.80;;;25.70;82.60;;;;;;4919105;29;20079;-76
2022/09/11 11:59:32;;;;;;;1.25;0.88;;;25.60;80.90;;;;;;4892345;29;20041;-75
2022/09/11 12:02:10;;;;;;;2.08;0.80;;;26.00;84.00;;;;;;4895921;29;20036;-76
2022/09/11 12:04:58;;;;;;;2.97;1.45;;;26.60;83.60;;;;;;4918665;29;20043;-76
2022/09/11 12:07:37;;;;;;;1.27;0.80;;;27.20;80.60;;;;;;4918418;29;20054;-76
2022/09/11 12:10:06;;;;;;;1.40;0.70;;;27.70;80.60;;;;;;4899577;29;20447;-76
2022/09/11 12:12:48;;;;;;;0.88;0.70;;;27.90;78.80;;;;;;4900054;29;20399;-76
2022/09/11 12:15:21;;;;;;;1.73;0.80;;;27.90;73.90;;;;;;4884296;29;20094;-76
2022/09/11 12:17:59;;;;;;;1.17;0.70;;;28.00;74.80;;;;;;4883831;29;20284;-76
2022/09/11 12:20:29;;;;;;;0.60;0.60;;;28.00;72.50;;;;;;4884139;29;20287;-76
2022/09/11 12:22:55;;;;;;;1.13;0.90;;;28.00;73.10;;;;;;4896069;29;20126;-76
2022/09/11 12:25:20;;;;;;;1.38;0.80;;;28.00;77.20;;;;;;4895976;29;20128;-76
2022/09/11 12:27:47;;;;;;;0.70;0.70;;;28.10;77.00;;;;;;4915298;29;20407;-76
2022/09/11 12:30:16;;;;;;;3.13;0.90;;;28.30;75.80;;;;;;4899349;29;20043;-76
2022/09/11 12:32:45;;;;;;;0.82;0.82;;;28.70;76.10;;;;;;4899426;29;20044;-77
2022/09/11 12:35:42;;;;;;;1.17;0.70;;;28.60;75.00;;;;;;4898803;29;20044;-77
2022/09/11 12:38:18;;;;;;;1.60;0.70;;;28.40;74.40;;;;;;4909064;29;20051;-77
2022/09/11 12:40:58;;;;;;;0.55;0.55;;;28.30;75.50;;;;;;4896115;29;20559;-77
2022/09/11 12:43:35;;;;;;;1.33;0.85;;;27.70;72.60;;;;;;4880755;29;20076;-77
2022/09/11 12:46:10;;;;;;;1.48;0.75;;;27.10;74.00;;;;;;4896171;29;20051;-77
2022/09/11 12:48:42;;;;;;;0.98;0.70;;;26.30;76.00;;;;;;4887296;29;20040;-77
2022/09/11 12:51:23;;;;;;;2.50;0.90;;;25.70;77.90;;;;;;4899393;29;20044;-77
2022/09/11 12:53:52;;;;;;;1.27;0.82;;;25.30;80.70;;;;;;4877640;29;20052;-77
2022/09/11 12:56:21;;;;;;;1.33;0.80;;;25.30;81.30;;;;;;4883864;29;20044;-77
2022/09/11 12:58:54;;;;;;;0.70;0.60;;;25.50;79.80;;;;;;4874653;29;20055;-77
2022/09/11 13:01:28;;;;;;;1.25;0.70;;;25.70;81.10;;;;;;4899145;29;20036;-77
2022/09/11 13:04:07;;;;;;;0.75;0.68;;;26.00;79.80;;;;;;4899068;29;20040;-77
2022/09/11 13:06:46;;;;;;;1.05;0.77;;;26.10;81.20;;;;;;4898959;29;20491;-76